sensor_id;sensor_type;location;lat;lon;timestamp;pressure;altitude;pressure_sealevel;temperature;humidity
30073;BME280;16897;52.422;13.678;2023-06-10T00:03:11;101216.38;;;21.53;31.17
30073;BME280;16897;52.422;13.678;2023-06-10T00:07:13;101213.00;;;21.51;31.49
30073;BME280;16897;52.422;13.678;2023-06-10T00:11:15;101192.91;;;21.39;31.35
30073;BME280;16897;52.422;13.678;2023-06-10T00:15:16;101214.44;;;21.46;31.32
30073;BME280;16897;52.422;13.678;2023-06-10T00:19:18;101201.56;;;21.31;31.83
30073;BME280;16897;52.422;13.678;2023-06-10T00:23:21;101171.41;;;21.13;31.63
30073;BME280;16897;52.422;13.678;2023-06-10T00:27:23;101194.03;;;21.17;31.48
30073;BME280;16897;52.422;13.678;2023-06-10T00:31:25;101203.28;;;21.23;31.83
30073;BME280;16897;52.422;13.678;2023-06-10T00:35:30;101193.78;;;21.10;31.84
30073;BME280;16897;52.422;13.678;2023-06-10T00:39:31;101186.09;;;21.07;31.69
30073;BME280;16897;52.422;13.678;2023-06-10T00:43:33;101213.91;;;21.13;31.81
30073;BME280;16897;52.422;13.678;2023-06-10T00:47:35;101174.09;;;20.93;31.83
30073;BME280;16897;52.422;13.678;2023-06-10T00:51:38;101200.63;;;21.03;31.88
30073;BME280;16897;52.422;13.678;2023-06-10T00:55:41;101213.34;;;21.09;31.90
30073;BME280;16897;52.422;13.678;2023-06-10T00:59:47;101213.75;;;21.05;32.24
30073;BME280;16897;52.422;13.678;2023-06-10T01:03:49;101218.91;;;21.06;31.88
30073;BME280;16897;52.422;13.678;2023-06-10T01:12:39;101219.50;;;20.90;32.29
30073;BME280;16897;52.422;13.678;2023-06-10T01:16:38;101235.69;;;20.97;32.01
30073;BME280;16897;52.422;13.678;2023-06-10T01:20:43;101228.59;;;20.88;32.43
30073;BME280;16897;52.422;13.678;2023-06-10T01:24:46;101226.22;;;20.85;32.67
30073;BME280;16897;52.422;13.678;2023-06-10T01:28:54;101215.00;;;20.81;32.46
30073;BME280;16897;52.422;13.678;2023-06-10T01:32:59;101211.81;;;20.77;32.42
30073;BME280;16897;52.422;13.678;2023-06-10T01:37:01;101231.78;;;20.82;32.50
30073;BME280;16897;52.422;13.678;2023-06-10T01:41:04;101210.97;;;20.67;32.31
30073;BME280;16897;52.422;13.678;2023-06-10T01:45:08;101229.69;;;20.75;32.63
30073;BME280;16897;52.422;13.678;2023-06-10T01:49:10;101229.97;;;20.72;32.61
30073;BME280;16897;52.422;13.678;2023-06-10T01:53:11;101231.22;;;20.68;32.56
30073;BME280;16897;52.422;13.678;2023-06-10T01:57:13;101234.84;;;20.67;32.92
30073;BME280;16897;52.422;13.678;2023-06-10T02:01:15;101233.88;;;20.59;32.95
30073;BME280;16897;52.422;13.678;2023-06-10T02:05:17;101228.97;;;20.54;32.99
30073;BME280;16897;52.422;13.678;2023-06-10T02:09:18;101220.81;;;20.46;33.09
30073;BME280;16897;52.422;13.678;2023-06-10T02:13:20;101236.19;;;20.52;32.71
30073;BME280;16897;52.422;13.678;2023-06-10T02:17:27;101215.34;;;20.38;33.15
30073;BME280;16897;52.422;13.678;2023-06-10T02:21:29;101239.38;;;20.46;33.22
30073;BME280;16897;52.422;13.678;2023-06-10T02:25:30;101184.88;;;20.13;33.24
30073;BME280;16897;52.422;13.678;2023-06-10T02:29:33;101215.75;;;20.23;32.89
30073;BME280;16897;52.422;13.678;2023-06-10T02:33:36;101237.53;;;20.27;33.19
30073;BME280;16897;52.422;13.678;2023-06-10T02:37:43;101237.69;;;20.25;33.23
30073;BME280;16897;52.422;13.678;2023-06-10T02:41:45;101210.38;;;20.04;33.33
30073;BME280;16897;52.422;13.678;2023-06-10T02:45:48;101242.53;;;20.20;33.56
30073;BME280;16897;52.422;13.678;2023-06-10T02:49:52;101223.94;;;20.10;33.37
30073;BME280;16897;52.422;13.678;2023-06-10T02:53:54;101241.94;;;20.17;33.42
30073;BME280;16897;52.422;13.678;2023-06-10T02:57:55;101236.63;;;20.07;33.47
30073;BME280;16897;52.422;13.678;2023-06-10T03:01:58;101233.53;;;20.02;33.30
30073;BME280;16897;52.422;13.678;2023-06-10T03:06:05;101228.44;;;19.89;33.64
30073;BME280;16897;52.422;13.678;2023-06-10T03:10:08;101245.78;;;19.93;33.66
30073;BME280;16897;52.422;13.678;2023-06-10T03:14:12;101197.66;;;19.67;33.89
30073;BME280;16897;52.422;13.678;2023-06-10T03:18:14;101231.31;;;19.76;33.88
30073;BME280;16897;52.422;13.678;2023-06-10T03:22:16;101240.97;;;19.77;33.67
30073;BME280;16897;52.422;13.678;2023-06-10T03:26:35;101241.22;;;19.74;33.83
30073;BME280;16897;52.422;13.678;2023-06-10T03:30:37;101205.50;;;19.48;34.06
30073;BME280;16897;52.422;13.678;2023-06-10T03:34:40;101247.91;;;19.69;33.75
30073;BME280;16897;52.422;13.678;2023-06-10T03:38:43;101233.84;;;19.57;34.07
30073;BME280;16897;52.422;13.678;2023-06-10T03:42:45;101245.00;;;19.60;34.21
30073;BME280;16897;52.422;13.678;2023-06-10T03:46:48;101256.47;;;19.61;34.24
30073;BME280;16897;52.422;13.678;2023-06-10T03:50:50;101217.13;;;19.35;34.07
30073;BME280;16897;52.422;13.678;2023-06-10T03:54:55;101252.91;;;19.51;34.26
30073;BME280;16897;52.422;13.678;2023-06-10T03:58:57;101229.13;;;19.39;34.13
30073;BME280;16897;52.422;13.678;2023-06-10T04:02:59;101259.88;;;19.52;34.10
30073;BME280;16897;52.422;13.678;2023-06-10T04:07:12;101263.50;;;19.51;34.42
30073;BME280;16897;52.422;13.678;2023-06-10T04:11:15;101267.81;;;19.52;34.42
30073;BME280;16897;52.422;13.678;2023-06-10T04:15:17;101266.00;;;19.52;34.44
30073;BME280;16897;52.422;13.678;2023-06-10T04:19:19;101282.63;;;19.54;34.47
30073;BME280;16897;52.422;13.678;2023-06-10T04:23:21;101283.34;;;19.56;34.60
30073;BME280;16897;52.422;13.678;2023-06-10T04:27:23;101259.69;;;19.43;34.69
30073;BME280;16897;52.422;13.678;2023-06-10T04:31:26;101271.19;;;19.54;34.72
30073;BME280;16897;52.422;13.678;2023-06-10T04:35:28;101284.63;;;19.62;34.82
30073;BME280;16897;52.422;13.678;2023-06-10T04:39:33;101276.50;;;19.54;34.89
30073;BME280;16897;52.422;13.678;2023-06-10T04:43:36;101286.72;;;19.58;34.63
30073;BME280;16897;52.422;13.678;2023-06-10T04:47:40;101286.09;;;19.66;34.98
30073;BME280;16897;52.422;13.678;2023-06-10T04:51:42;101291.69;;;19.73;34.98
30073;BME280;16897;52.422;13.678;2023-06-10T04:55:44;101277.63;;;19.72;35.13
30073;BME280;16897;52.422;13.678;2023-06-10T04:59:47;101296.81;;;19.85;35.14
30073;BME280;16897;52.422;13.678;2023-06-10T05:03:49;101306.88;;;19.92;35.21
30073;BME280;16897;52.422;13.678;2023-06-10T05:07:50;101298.09;;;19.91;35.38
30073;BME280;16897;52.422;13.678;2023-06-10T05:11:52;101301.31;;;19.95;35.30
30073;BME280;16897;52.422;13.678;2023-06-10T05:15:54;101289.03;;;19.94;35.55
30073;BME280;16897;52.422;13.678;2023-06-10T05:19:56;101295.16;;;19.94;35.67
30073;BME280;16897;52.422;13.678;2023-06-10T05:23:57;101274.63;;;19.86;35.60
30073;BME280;16897;52.422;13.678;2023-06-10T05:27:59;101292.03;;;20.10;35.56
30073;BME280;16897;52.422;13.678;2023-06-10T05:32:01;101264.25;;;20.04;35.45
30073;BME280;16897;52.422;13.678;2023-06-10T05:36:04;101287.25;;;20.34;35.94
30073;BME280;16897;52.422;13.678;2023-06-10T05:40:07;101308.00;;;20.60;35.59
30073;BME280;16897;52.422;13.678;2023-06-10T05:44:09;101311.13;;;20.75;36.03
30073;BME280;16897;52.422;13.678;2023-06-10T05:48:10;101304.72;;;20.87;35.88
30073;BME280;16897;52.422;13.678;2023-06-10T05:52:12;101292.19;;;20.99;36.17
30073;BME280;16897;52.422;13.678;2023-06-10T05:56:14;101302.81;;;21.18;36.21
30073;BME280;16897;52.422;13.678;2023-06-10T06:00:16;101314.69;;;21.34;36.17
30073;BME280;16897;52.422;13.678;2023-06-10T06:04:18;101305.06;;;21.42;36.35
30073;BME280;16897;52.422;13.678;2023-06-10T06:08:19;101316.50;;;21.62;36.62
30073;BME280;16897;52.422;13.678;2023-06-10T06:12:21;101313.25;;;21.78;36.75
30073;BME280;16897;52.422;13.678;2023-06-10T06:16:23;101309.47;;;21.91;36.32
30073;BME280;16897;52.422;13.678;2023-06-10T06:20:24;101319.91;;;22.12;36.53
30073;BME280;16897;52.422;13.678;2023-06-10T06:24:25;101329.81;;;22.29;36.36
30073;BME280;16897;52.422;13.678;2023-06-10T06:28:27;101317.97;;;22.41;36.78
30073;BME280;16897;52.422;13.678;2023-06-10T06:32:30;101321.13;;;22.54;36.82
30073;BME280;16897;52.422;13.678;2023-06-10T06:36:32;101323.44;;;22.67;36.62
30073;BME280;16897;52.422;13.678;2023-06-10T06:40:34;101322.25;;;22.80;36.56
30073;BME280;16897;52.422;13.678;2023-06-10T06:44:36;101332.13;;;22.97;36.49
30073;BME280;16897;52.422;13.678;2023-06-10T06:48:37;101340.13;;;23.15;36.38
30073;BME280;16897;52.422;13.678;2023-06-10T06:52:46;101329.25;;;23.26;36.59
30073;BME280;16897;52.422;13.678;2023-06-10T06:56:53;101325.19;;;23.40;36.84
30073;BME280;16897;52.422;13.678;2023-06-10T07:00:55;101334.31;;;23.55;36.33
30073;BME280;16897;52.422;13.678;2023-06-10T07:04:57;101354.41;;;23.85;36.93
30073;BME280;16897;52.422;13.678;2023-06-10T07:09:00;101357.00;;;23.95;36.86
30073;BME280;16897;52.422;13.678;2023-06-10T07:13:02;101350.38;;;24.07;36.58
30073;BME280;16897;52.422;13.678;2023-06-10T07:17:03;101351.47;;;24.23;36.46
30073;BME280;16897;52.422;13.678;2023-06-10T07:21:05;101352.34;;;24.32;36.67
30073;BME280;16897;52.422;13.678;2023-06-10T07:25:07;101361.81;;;24.44;36.84
30073;BME280;16897;52.422;13.678;2023-06-10T07:29:08;101368.88;;;24.61;36.58
30073;BME280;16897;52.422;13.678;2023-06-10T07:33:10;101343.81;;;24.62;36.86
30073;BME280;16897;52.422;13.678;2023-06-10T07:37:12;101366.25;;;24.78;36.60
30073;BME280;16897;52.422;13.678;2023-06-10T07:41:13;101373.00;;;24.98;36.63
30073;BME280;16897;52.422;13.678;2023-06-10T07:45:15;101371.00;;;25.08;36.39
30073;BME280;16897;52.422;13.678;2023-06-10T07:49:16;101355.88;;;25.17;36.39
30073;BME280;16897;52.422;13.678;2023-06-10T07:53:18;101380.78;;;25.50;36.63
30073;BME280;16897;52.422;13.678;2023-06-10T07:57:20;101319.97;;;25.36;36.44
30073;BME280;16897;52.422;13.678;2023-06-10T08:01:22;101377.66;;;25.88;36.61
30073;BME280;16897;52.422;13.678;2023-06-10T08:05:24;101377.44;;;25.97;36.57
30073;BME280;16897;52.422;13.678;2023-06-10T08:09:26;101373.06;;;26.13;36.76
30073;BME280;16897;52.422;13.678;2023-06-10T08:13:27;101377.72;;;26.27;36.75
30073;BME280;16897;52.422;13.678;2023-06-10T08:17:30;101370.31;;;26.37;36.62
30073;BME280;16897;52.422;13.678;2023-06-10T08:21:31;101383.88;;;26.52;36.54
30073;BME280;16897;52.422;13.678;2023-06-10T08:25:33;101375.97;;;26.59;36.28
30073;BME280;16897;52.422;13.678;2023-06-10T08:29:35;101363.25;;;26.61;36.40
30073;BME280;16897;52.422;13.678;2023-06-10T08:33:37;101383.72;;;26.85;36.45
30073;BME280;16897;52.422;13.678;2023-06-10T08:37:38;101379.81;;;26.96;36.50
30073;BME280;16897;52.422;13.678;2023-06-10T08:41:43;101376.22;;;27.11;36.37
30073;BME280;16897;52.422;13.678;2023-06-10T08:45:50;101385.53;;;27.24;36.42
30073;BME280;16897;52.422;13.678;2023-06-10T08:49:52;101362.56;;;27.21;36.02
30073;BME280;16897;52.422;13.678;2023-06-10T08:54:04;101385.03;;;27.43;36.38
30073;BME280;16897;52.422;13.678;2023-06-10T08:58:07;101389.75;;;27.64;36.04
30073;BME280;16897;52.422;13.678;2023-06-10T09:02:09;101393.84;;;27.75;36.16
30073;BME280;16897;52.422;13.678;2023-06-10T09:06:11;101375.00;;;27.83;36.16
30073;BME280;16897;52.422;13.678;2023-06-10T09:10:12;101390.78;;;28.01;36.18
30073;BME280;16897;52.422;13.678;2023-06-10T09:14:14;101382.94;;;28.14;36.17
30073;BME280;16897;52.422;13.678;2023-06-10T09:18:18;101378.47;;;28.21;36.14
30073;BME280;16897;52.422;13.678;2023-06-10T09:22:19;101384.97;;;28.42;36.03
30073;BME280;16897;52.422;13.678;2023-06-10T09:26:22;101395.72;;;28.57;35.48
30073;BME280;16897;52.422;13.678;2023-06-10T09:30:30;101381.25;;;28.73;35.71
30073;BME280;16897;52.422;13.678;2023-06-10T09:34:32;101380.75;;;28.84;35.70
30073;BME280;16897;52.422;13.678;2023-06-10T09:38:34;101390.66;;;28.98;35.52
30073;BME280;16897;52.422;13.678;2023-06-10T09:42:38;101374.78;;;29.03;35.33
30073;BME280;16897;52.422;13.678;2023-06-10T09:46:41;101380.22;;;29.25;35.02
30073;BME280;16897;52.422;13.678;2023-06-10T09:50:44;101358.91;;;29.30;35.16
30073;BME280;16897;52.422;13.678;2023-06-10T09:54:46;101371.78;;;29.56;35.00
30073;BME280;16897;52.422;13.678;2023-06-10T09:58:49;101379.84;;;29.71;35.01
30073;BME280;16897;52.422;13.678;2023-06-10T10:02:54;101380.31;;;29.81;34.87
30073;BME280;16897;52.422;13.678;2023-06-10T10:06:55;101384.13;;;29.93;34.53
30073;BME280;16897;52.422;13.678;2023-06-10T10:10:57;101392.63;;;29.97;34.69
30073;BME280;16897;52.422;13.678;2023-06-10T10:14:59;101393.69;;;29.96;34.25
30073;BME280;16897;52.422;13.678;2023-06-10T10:19:04;101403.22;;;29.98;34.56
30073;BME280;16897;52.422;13.678;2023-06-10T10:23:08;101392.78;;;29.89;34.33
30073;BME280;16897;52.422;13.678;2023-06-10T10:27:17;101387.22;;;29.90;34.15
30073;BME280;16897;52.422;13.678;2023-06-10T10:31:18;101384.78;;;29.95;34.47
30073;BME280;16897;52.422;13.678;2023-06-10T10:35:23;101373.19;;;30.02;34.17
30073;BME280;16897;52.422;13.678;2023-06-10T10:39:26;101375.97;;;30.15;34.18
30073;BME280;16897;52.422;13.678;2023-06-10T10:43:29;101373.97;;;30.24;33.88
30073;BME280;16897;52.422;13.678;2023-06-10T10:47:32;101363.88;;;30.32;34.10
30073;BME280;16897;52.422;13.678;2023-06-10T10:51:34;101374.47;;;30.40;33.58
30073;BME280;16897;52.422;13.678;2023-06-10T10:55:37;101362.47;;;30.43;33.83
30073;BME280;16897;52.422;13.678;2023-06-10T10:59:59;101366.28;;;30.62;34.01
30073;BME280;16897;52.422;13.678;2023-06-10T11:04:01;101364.63;;;30.68;33.88
30073;BME280;16897;52.422;13.678;2023-06-10T11:08:08;101361.75;;;30.69;33.53
30073;BME280;16897;52.422;13.678;2023-06-10T11:12:10;101351.38;;;30.66;33.35
30073;BME280;16897;52.422;13.678;2023-06-10T11:16:14;101365.72;;;30.73;33.33
30073;BME280;16897;52.422;13.678;2023-06-10T11:20:44;101363.28;;;30.85;33.31
30073;BME280;16897;52.422;13.678;2023-06-10T11:24:50;101362.91;;;30.95;33.18
30073;BME280;16897;52.422;13.678;2023-06-10T11:32:56;101347.97;;;30.99;33.02
30073;BME280;16897;52.422;13.678;2023-06-10T11:36:57;101354.84;;;31.15;32.96
30073;BME280;16897;52.422;13.678;2023-06-10T11:41:01;101359.19;;;31.16;32.60
30073;BME280;16897;52.422;13.678;2023-06-10T11:45:03;101361.91;;;31.16;32.48
30073;BME280;16897;52.422;13.678;2023-06-10T11:49:09;101352.16;;;31.15;32.75
30073;BME280;16897;52.422;13.678;2023-06-10T11:53:11;101339.06;;;31.18;32.50
30073;BME280;16897;52.422;13.678;2023-06-10T11:57:13;101346.16;;;31.33;32.72
30073;BME280;16897;52.422;13.678;2023-06-10T12:01:19;101320.38;;;31.23;32.71
30073;BME280;16897;52.422;13.678;2023-06-10T12:05:21;101342.03;;;31.43;32.67
30073;BME280;16897;52.422;13.678;2023-06-10T12:09:28;101336.22;;;31.40;32.23
30073;BME280;16897;52.422;13.678;2023-06-10T12:13:29;101340.59;;;31.41;32.31
30073;BME280;16897;52.422;13.678;2023-06-10T12:21:33;101333.72;;;31.38;32.05
30073;BME280;16897;52.422;13.678;2023-06-10T12:25:36;101314.16;;;31.29;32.04
30073;BME280;16897;52.422;13.678;2023-06-10T12:29:38;101329.78;;;31.41;32.27
30073;BME280;16897;52.422;13.678;2023-06-10T12:33:40;101332.88;;;31.51;32.36
30073;BME280;16897;52.422;13.678;2023-06-10T12:37:53;101330.38;;;31.56;31.94
30073;BME280;16897;52.422;13.678;2023-06-10T12:41:55;101300.50;;;31.44;32.08
30073;BME280;16897;52.422;13.678;2023-06-10T12:46:08;101320.44;;;31.50;31.65
30073;BME280;16897;52.422;13.678;2023-06-10T12:50:10;101309.63;;;31.37;31.93
30073;BME280;16897;52.422;13.678;2023-06-10T12:54:13;101311.09;;;31.39;31.53
30073;BME280;16897;52.422;13.678;2023-06-10T12:58:15;101291.94;;;31.34;31.19
30073;BME280;16897;52.422;13.678;2023-06-10T13:02:16;101298.00;;;31.43;31.23
30073;BME280;16897;52.422;13.678;2023-06-10T13:06:17;101280.56;;;31.52;31.39
30073;BME280;16897;52.422;13.678;2023-06-10T13:10:21;101291.34;;;31.65;31.14
30073;BME280;16897;52.422;13.678;2023-06-10T13:14:23;101290.25;;;31.80;31.22
30073;BME280;16897;52.422;13.678;2023-06-10T13:18:24;101292.72;;;31.94;31.07
30073;BME280;16897;52.422;13.678;2023-06-10T13:22:27;101288.38;;;32.00;31.03
30073;BME280;16897;52.422;13.678;2023-06-10T13:26:29;101281.50;;;32.04;31.22
30073;BME280;16897;52.422;13.678;2023-06-10T13:30:30;101280.00;;;32.15;30.55
30073;BME280;16897;52.422;13.678;2023-06-10T13:34:32;101279.94;;;32.22;30.64
30073;BME280;16897;52.422;13.678;2023-06-10T13:38:33;101257.16;;;32.11;30.34
30073;BME280;16897;52.422;13.678;2023-06-10T13:42:35;101278.31;;;32.21;30.12
30073;BME280;16897;52.422;13.678;2023-06-10T13:46:37;101272.25;;;32.25;30.29
30073;BME280;16897;52.422;13.678;2023-06-10T13:50:38;101259.13;;;32.29;30.37
30073;BME280;16897;52.422;13.678;2023-06-10T13:54:40;101267.88;;;32.31;29.82
30073;BME280;16897;52.422;13.678;2023-06-10T13:58:42;101272.63;;;32.35;29.91
30073;BME280;16897;52.422;13.678;2023-06-10T14:02:44;101272.78;;;32.40;29.90
30073;BME280;16897;52.422;13.678;2023-06-10T14:06:46;101261.59;;;32.37;29.67
30073;BME280;16897;52.422;13.678;2023-06-10T14:10:48;101267.22;;;32.35;29.78
30073;BME280;16897;52.422;13.678;2023-06-10T14:14:49;101266.59;;;32.33;29.84
30073;BME280;16897;52.422;13.678;2023-06-10T14:18:51;101270.31;;;32.39;29.66
30073;BME280;16897;52.422;13.678;2023-06-10T14:22:52;101286.09;;;32.42;29.51
30073;BME280;16897;52.422;13.678;2023-06-10T14:26:53;101282.34;;;32.43;29.59
30073;BME280;16897;52.422;13.678;2023-06-10T14:30:55;101274.47;;;32.42;29.80
30073;BME280;16897;52.422;13.678;2023-06-10T14:34:58;101262.41;;;32.37;29.60
30073;BME280;16897;52.422;13.678;2023-06-10T14:39:00;101268.59;;;32.51;29.61
30073;BME280;16897;52.422;13.678;2023-06-10T14:43:02;101264.38;;;32.62;29.46
30073;BME280;16897;52.422;13.678;2023-06-10T14:47:05;101258.31;;;32.67;29.35
30073;BME280;16897;52.422;13.678;2023-06-10T14:51:07;101248.31;;;32.74;29.25
30073;BME280;16897;52.422;13.678;2023-06-10T14:55:08;101261.81;;;32.74;29.37
30073;BME280;16897;52.422;13.678;2023-06-10T14:59:10;101257.28;;;32.68;29.04
30073;BME280;16897;52.422;13.678;2023-06-10T15:03:11;101250.03;;;32.61;29.34
30073;BME280;16897;52.422;13.678;2023-06-10T15:07:12;101252.56;;;32.56;29.33
30073;BME280;16897;52.422;13.678;2023-06-10T15:11:16;101261.34;;;32.52;29.11
30073;BME280;16897;52.422;13.678;2023-06-10T15:15:18;101256.38;;;32.49;28.96
30073;BME280;16897;52.422;13.678;2023-06-10T15:19:19;101261.56;;;32.44;28.77
30073;BME280;16897;52.422;13.678;2023-06-10T15:23:21;101270.50;;;32.44;28.64
30073;BME280;16897;52.422;13.678;2023-06-10T15:27:23;101254.28;;;32.44;28.73
30073;BME280;16897;52.422;13.678;2023-06-10T15:31:24;101253.22;;;32.45;28.46
30073;BME280;16897;52.422;13.678;2023-06-10T15:35:26;101265.72;;;32.46;28.42
30073;BME280;16897;52.422;13.678;2023-06-10T15:39:27;101275.06;;;32.50;28.37
30073;BME280;16897;52.422;13.678;2023-06-10T15:43:31;101268.22;;;32.48;28.33
30073;BME280;16897;52.422;13.678;2023-06-10T15:47:33;101255.16;;;32.38;28.36
30073;BME280;16897;52.422;13.678;2023-06-10T15:51:34;101231.34;;;32.15;28.43
30073;BME280;16897;52.422;13.678;2023-06-10T15:55:35;101248.75;;;32.26;28.05
30073;BME280;16897;52.422;13.678;2023-06-10T15:59:36;101272.41;;;32.37;28.32
30073;BME280;16897;52.422;13.678;2023-06-10T16:03:38;101267.88;;;32.31;27.96
30073;BME280;16897;52.422;13.678;2023-06-10T16:07:39;101260.22;;;32.21;27.97
30073;BME280;16897;52.422;13.678;2023-06-10T16:11:41;101266.28;;;32.16;27.91
30073;BME280;16897;52.422;13.678;2023-06-10T16:15:43;101273.72;;;32.21;27.78
30073;BME280;16897;52.422;13.678;2023-06-10T16:19:44;101284.09;;;32.24;27.70
30073;BME280;16897;52.422;13.678;2023-06-10T16:23:46;101283.28;;;32.24;28.09
30073;BME280;16897;52.422;13.678;2023-06-10T16:27:47;101282.88;;;32.20;27.96
30073;BME280;16897;52.422;13.678;2023-06-10T16:31:48;101275.66;;;32.14;27.74
30073;BME280;16897;52.422;13.678;2023-06-10T16:35:50;101280.00;;;32.15;27.41
30073;BME280;16897;52.422;13.678;2023-06-10T16:39:51;101271.72;;;32.03;27.31
30073;BME280;16897;52.422;13.678;2023-06-10T16:43:53;101277.56;;;32.00;27.20
30073;BME280;16897;52.422;13.678;2023-06-10T16:47:54;101290.66;;;31.96;27.61
30073;BME280;16897;52.422;13.678;2023-06-10T16:51:55;101282.97;;;31.93;27.58
30073;BME280;16897;52.422;13.678;2023-06-10T16:55:57;101287.13;;;31.89;27.49
30073;BME280;16897;52.422;13.678;2023-06-10T16:59:58;101288.38;;;31.87;27.47
30073;BME280;16897;52.422;13.678;2023-06-10T17:04:00;101288.41;;;31.73;27.03
30073;BME280;16897;52.422;13.678;2023-06-10T17:08:01;101289.44;;;31.72;27.20
30073;BME280;16897;52.422;13.678;2023-06-10T17:12:03;101294.25;;;31.70;27.32
30073;BME280;16897;52.422;13.678;2023-06-10T17:16:05;101300.69;;;31.63;27.29
30073;BME280;16897;52.422;13.678;2023-06-10T17:20:07;101297.16;;;31.56;27.19
30073;BME280;16897;52.422;13.678;2023-06-10T17:24:08;101294.28;;;31.44;26.88
30073;BME280;16897;52.422;13.678;2023-06-10T17:28:10;101297.56;;;31.33;26.79
30073;BME280;16897;52.422;13.678;2023-06-10T17:32:11;101303.16;;;31.24;27.00
30073;BME280;16897;52.422;13.678;2023-06-10T17:36:13;101286.34;;;31.09;26.93
30073;BME280;16897;52.422;13.678;2023-06-10T17:40:14;101283.22;;;30.92;27.10
30073;BME280;16897;52.422;13.678;2023-06-10T17:44:16;101297.13;;;30.96;26.91
30073;BME280;16897;52.422;13.678;2023-06-10T17:48:17;101317.66;;;30.97;27.07
30073;BME280;16897;52.422;13.678;2023-06-10T17:52:18;101317.44;;;30.92;26.69
30073;BME280;16897;52.422;13.678;2023-06-10T17:56:20;101326.13;;;30.80;26.84
30073;BME280;16897;52.422;13.678;2023-06-10T18:00:21;101326.97;;;30.81;26.84
30073;BME280;16897;52.422;13.678;2023-06-10T18:04:25;101331.91;;;30.77;27.11
30073;BME280;16897;52.422;13.678;2023-06-10T18:08:26;101331.50;;;30.74;26.77
30073;BME280;16897;52.422;13.678;2023-06-10T18:12:29;101336.44;;;30.70;26.78
30073;BME280;16897;52.422;13.678;2023-06-10T18:16:30;101316.91;;;30.55;27.09
30073;BME280;16897;52.422;13.678;2023-06-10T18:20:32;101327.06;;;30.59;26.81
30073;BME280;16897;52.422;13.678;2023-06-10T18:24:33;101296.13;;;30.35;27.38
30073;BME280;16897;52.422;13.678;2023-06-10T18:28:34;101339.94;;;30.57;26.95
30073;BME280;16897;52.422;13.678;2023-06-10T18:32:36;101333.06;;;30.48;27.02
30073;BME280;16897;52.422;13.678;2023-06-10T18:36:37;101338.84;;;30.38;27.02
30073;BME280;16897;52.422;13.678;2023-06-10T18:40:38;101347.88;;;30.24;26.91
30073;BME280;16897;52.422;13.678;2023-06-10T18:44:40;101352.56;;;30.15;27.35
30073;BME280;16897;52.422;13.678;2023-06-10T18:48:42;101362.69;;;30.13;27.13
30073;BME280;16897;52.422;13.678;2023-06-10T18:52:46;101355.63;;;30.06;27.18
30073;BME280;16897;52.422;13.678;2023-06-10T18:56:47;101373.84;;;30.04;27.47
30073;BME280;16897;52.422;13.678;2023-06-10T19:00:50;101355.31;;;29.87;27.46
30073;BME280;16897;52.422;13.678;2023-06-10T19:04:51;101373.19;;;29.95;27.22
30073;BME280;16897;52.422;13.678;2023-06-10T19:08:54;101376.38;;;29.84;27.35
30073;BME280;16897;52.422;13.678;2023-06-10T19:12:55;101376.53;;;29.75;27.22
30073;BME280;16897;52.422;13.678;2023-06-10T19:16:56;101377.53;;;29.68;27.06
30073;BME280;16897;52.422;13.678;2023-06-10T19:20:58;101384.69;;;29.61;27.28
30073;BME280;16897;52.422;13.678;2023-06-10T19:25:01;101378.34;;;29.47;27.32
30073;BME280;16897;52.422;13.678;2023-06-10T19:29:03;101400.72;;;29.47;27.54
30073;BME280;16897;52.422;13.678;2023-06-10T19:33:04;101395.19;;;29.34;27.38
30073;BME280;16897;52.422;13.678;2023-06-10T19:37:06;101387.69;;;29.08;27.46
30073;BME280;16897;52.422;13.678;2023-06-10T19:41:07;101387.88;;;29.06;27.41
30073;BME280;16897;52.422;13.678;2023-06-10T19:45:09;101422.34;;;29.18;27.60
30073;BME280;16897;52.422;13.678;2023-06-10T19:49:11;101401.34;;;29.06;27.48
30073;BME280;16897;52.422;13.678;2023-06-10T19:53:12;101419.94;;;29.08;27.70
30073;BME280;16897;52.422;13.678;2023-06-10T19:57:14;101416.06;;;28.96;28.12
30073;BME280;16897;52.422;13.678;2023-06-10T20:01:16;101410.31;;;28.84;27.82
30073;BME280;16897;52.422;13.678;2023-06-10T20:05:17;101419.97;;;28.78;27.70
30073;BME280;16897;52.422;13.678;2023-06-10T20:09:19;101443.84;;;28.81;27.73
30073;BME280;16897;52.422;13.678;2023-06-10T20:13:20;101457.56;;;28.72;27.52
30073;BME280;16897;52.422;13.678;2023-06-10T20:17:22;101445.22;;;28.62;27.50
30073;BME280;16897;52.422;13.678;2023-06-10T20:21:24;101469.16;;;28.57;27.81
30073;BME280;16897;52.422;13.678;2023-06-10T20:25:28;101465.34;;;28.52;27.84
30073;BME280;16897;52.422;13.678;2023-06-10T20:29:31;101462.88;;;28.42;27.88
30073;BME280;16897;52.422;13.678;2023-06-10T20:33:32;101468.63;;;28.39;27.78
30073;BME280;16897;52.422;13.678;2023-06-10T20:37:34;101447.41;;;28.14;27.69
30073;BME280;16897;52.422;13.678;2023-06-10T20:41:36;101447.66;;;28.05;27.90
30073;BME280;16897;52.422;13.678;2023-06-10T20:45:38;101476.00;;;28.07;27.90
30073;BME280;16897;52.422;13.678;2023-06-10T20:49:39;101498.66;;;28.05;27.97
30073;BME280;16897;52.422;13.678;2023-06-10T20:53:41;101475.53;;;27.80;28.17
30073;BME280;16897;52.422;13.678;2023-06-10T20:57:42;101482.63;;;27.73;27.89
30073;BME280;16897;52.422;13.678;2023-06-10T21:01:44;101480.31;;;27.62;27.96
30073;BME280;16897;52.422;13.678;2023-06-10T21:05:45;101508.84;;;27.63;28.22